ADDS METAR Data INFO
IDs: Format: Raw Decoded Include TAF

Data at: 1011 UTC 22 May 2018

KIXD 220953Z AUTO 00000KT 10SM CLR 14/14 A3002 RMK AO2 SLP159 T01440139
KIXD 220853Z AUTO 16004KT 10SM CLR 14/14 A3002 RMK AO2 SLP157 T01440144 56007
KIXD 220753Z AUTO 00000KT 10SM CLR 17/15 A3002 RMK AO2 SLP156 T01670150
KIXD 220653Z AUTO 00000KT 10SM CLR 16/14 A3002 RMK AO2 SLP160 T01610144
KIXD 220553Z AUTO 00000KT 10SM CLR 16/14 A3004 RMK AO2 SLP165 T01610144 10239 20161 402390156 50004
KIXD 220453Z AUTO 12004KT 10SM CLR 17/15 A3005 RMK AO2 SLP169 T01720150
KIXD 220353Z AUTO 13005KT 10SM CLR 18/15 A3004 RMK AO2 SLP167 T01830150
KIXD 220253Z 15004KT 10SM CLR 18/15 A3002 RMK AO2 SLP161 T01830150 53007
KIXD 220153Z 12004KT 10SM CLR 21/15 A3001 RMK AO2 SLP155 T02060150
KIXD 220053Z 00000KT 10SM CLR 22/16 A3000 RMK AO2 SLP153 T02220156
KIXD 212353Z 30003KT 10SM CLR 23/15 A3000 RMK AO2 SLP151 T02330150 10239 20189 56012
KIXD 212253Z 30007KT 10SM CLR 23/15 A3001 RMK AO2 SLP153 T02330150
KIXD 212153Z 27003KT 10SM CLR 23/15 A3001 RMK AO2 SLP156 T02330150
KIXD 212053Z 25007KT 10SM CLR 23/15 A3004 RMK AO2 SLP163 T02330150 58012
KIXD 211953Z 23007KT 10SM BKN031 23/15 A3006 RMK AO2 SLP171 T02280150
KIXD 211853Z VRB04KT 10SM BKN025 21/14 A3007 RMK AO2 SLP177 T02060144
KIXD 211849Z 21005KT 10SM SCT025 21/14 A3007 RMK AO2
KIXD 211753Z 28010KT 10SM BKN020 BKN026 19/14 A3009 RMK AO2 SLP181 T01940144 10194 20156 58004
KIXD 211712Z 21006KT 10SM OVC016 18/14 A3010 RMK AO2 T01780139
KIXD 211653Z 24007KT 10SM OVC014 17/14 A3010 RMK AO2 SLP187 T01720139
KIXD 211632Z 24005KT 10SM BKN010 OVC016 17/14 A3010 RMK AO2 T01670139
KIXD 211553Z 27006KT 10SM OVC009 16/14 A3010 RMK AO2 CIG 007V011 SLP188 T01560139
KIXD 211453Z 27006KT 7SM OVC008 16/14 A3010 RMK AO2 SLP188 T01560139 53013
KIXD 211353Z 30009KT 4SM BR OVC005 16/14 A3008 RMK AO2 SLP181 T01560144
KIXD 211303Z 29012KT 3SM BR OVC005 16/15 A3007 RMK AO2 T01560150
KIXD 211253Z 28012KT 4SM BR OVC004 16/15 A3007 RMK AO2 SLP177 T01610150
KIXD 211245Z 28011KT 3SM BR OVC004 16/15 A3007 RMK AO2 T01560150
KIXD 211213Z 29006KT 2SM BR BKN008 OVC016 16/16 A3007 RMK AO2 CIG 005V012 T01610156
KIXD 211202Z 28005KT 2 1/2SM BR SCT008 OVC014 16/16 A3006 RMK AO2 T01610156
KIXD 211153Z 28004KT 2SM BR OVC014 16/16 A3006 RMK AO2 SLP172 70036 T01610156 10167 20156 53007
KIXD 211146Z 27003KT 2SM BR FEW004 OVC012 16/16 A3006 RMK AO2 T01610156
KIXD 211137Z 26003KT 3SM BR SCT004 OVC012 16/16 A3005 RMK AO2 T01610156
KIXD 211106Z 27005KT 3SM BR BKN002 OVC014 16/16 A3005 RMK AO2 T01610156
KIXD 211053Z 29005KT 2 1/2SM BR OVC002 16/16 A3005 RMK AO2 SLP169 T01610156
KIXD 211019Z AUTO 30006KT 2SM BR OVC003 16/16 A3004 RMK AO2 T01560156
KIXD 210953Z AUTO 30006KT 5SM BR BKN004 BKN018 16/15 A3004 RMK AO2 SLP166 T01560150
KIXD 210948Z AUTO 30005KT 5SM BR SCT004 BKN018 16/15 A3004 RMK AO2
KIXD 210853Z AUTO 29007KT 4SM BR OVC003 17/16 A3004 RMK AO2 SLP167 T01670161 55003
KIXD 210831Z AUTO 31006KT 3SM BR OVC002 17/16 A3004 RMK AO2 T01670161
KIXD 210801Z AUTO 29007KT 2 1/2SM BR OVC002 17/16 A3004 RMK AO2 T01670161
KIXD 210753Z AUTO 30008KT 1 3/4SM BR OVC002 17/16 A3004 RMK AO2 SLP165 T01670161
KIXD 210728Z AUTO 29008KT 4SM BR BKN003 17/16 A3004 RMK AO2 T01670161
KIXD 210722Z AUTO 28010KT 4SM BR SCT005 17/16 A3004 RMK AO2 T01670161
KIXD 210653Z AUTO 27006KT 4SM BR CLR 17/16 A3005 RMK AO2 SLP169 T01670161
KIXD 210553Z AUTO 29006KT 4SM BR SCT008 17/17 A3005 RMK AO2 SLP170 T01670167 10200 20167 402220167 51004
KIXD 210535Z AUTO 28006KT 4SM BR SCT002 17/17 A3005 RMK AO2 T01720167
KIXD 210522Z AUTO 28005KT 3SM BR BKN002 17/17 A3005 RMK AO2 T01720167
KIXD 210514Z AUTO 27005KT 1SM BR VV002 17/17 A3005 RMK AO2 T01720167
KIXD 210505Z AUTO 27004KT 1SM BR BKN001 17/17 A3005 RMK AO2 T01720172
KIXD 210458Z AUTO 28004KT 2 1/2SM BR BKN002 17/17 A3005 RMK AO2 T01720172
KIXD 210453Z AUTO 28004KT 5SM BR SCT002 17/17 A3005 RMK AO2 SLP169 T01720167
KIXD 210353Z AUTO 32003KT 8SM CLR 17/17 A3004 RMK AO2 SLP167 T01720172
KIXD 210328Z AUTO 30004KT 10SM FEW009 17/17 A3004 RMK AO2 T01720172
KIXD 210253Z 31003KT 10SM FEW085 17/17 A3004 RMK AO2 SLP166 T01670167 53005
KIXD 210153Z 34005KT 10SM FEW035 BKN075 18/17 A3003 RMK AO2 SLP162 T01830172
KIXD 210121Z 31007KT 10SM FEW028 SCT035 19/18 A3003 RMK AO2 T01940178
KIXD 210053Z 29008KT 10SM BKN027 OVC095 19/18 A3003 RMK AO2 SLP160 T01940183
KIXD 202353Z 30007KT 10SM FEW012 OVC100 20/18 A3002 RMK AO2 RAB01E32 SLP159 P0000 60004 T02000183 10222 20200 55020
KIXD 202253Z 02004KT 10SM OVC075 21/17 A3002 RMK AO2 SLP158 T02060172